Time;durP1;ratioP1;P1;durP2;ratioP2;P2;SDS_P1;SDS_P2;PMS_P1;PMS_P2;Temp;Humidity;BMP_temperature;BMP_pressure;BME280_temperature;BME280_humidity;BME280_pressure;Samples;Min_cycle;Max_cycle;Signal;HPM_P1;HPM_P2
2023/07/26 00:01:57;;;;;;;2.50;1.60;;;;;;;;;;5048139;28;20130;-67
2023/07/26 00:04:24;;;;;;;7.93;1.67;;;;;;;;;;5021631;28;20067;-67
2023/07/26 00:06:51;;;;;;;3.38;1.65;;;;;;;;;;5053465;28;20041;-67
2023/07/26 00:09:18;;;;;;;4.75;2.00;;;;;;;;;;5071570;28;20060;-67
2023/07/26 00:11:46;;;;;;;6.05;1.90;;;;;;;;;;5070559;28;20052;-67
2023/07/26 00:14:13;;;;;;;8.90;2.35;;;;;;;;;;5045089;28;20053;-67
2023/07/26 00:16:41;;;;;;;4.55;1.63;;;;;;;;;;5048380;28;20118;-67
2023/07/26 00:19:07;;;;;;;4.20;1.67;;;;;;;;;;5061341;28;20060;-67
2023/07/26 00:21:34;;;;;;;4.80;1.83;;;;;;;;;;5057947;28;20236;-67
2023/07/26 00:24:01;;;;;;;5.78;1.75;;;;;;;;;;5059025;28;20044;-67
2023/07/26 00:26:28;;;;;;;3.13;1.77;;;;;;;;;;5047810;28;20129;-69
2023/07/26 00:28:56;;;;;;;5.95;1.90;;;;;;;;;;5071225;28;20064;-67
2023/07/26 00:31:23;;;;;;;3.60;1.70;;;;;;;;;;5060686;28;20118;-67
2023/07/26 00:33:50;;;;;;;3.92;1.95;;;;;;;;;;5062998;28;20045;-67
2023/07/26 00:36:17;;;;;;;5.10;2.00;;;;;;;;;;5050983;28;20083;-66
2023/07/26 00:38:43;;;;;;;5.25;1.90;;;;;;;;;;5053145;28;20106;-68
2023/07/26 00:41:10;;;;;;;4.10;1.80;;;;;;;;;;5041092;28;20060;-66
2023/07/26 00:43:37;;;;;;;3.38;1.60;;;;;;;;;;5042247;28;20122;-67
2023/07/26 00:46:07;;;;;;;3.95;1.85;;;;;;;;;;5045484;28;20063;-67
2023/07/26 00:48:35;;;;;;;3.90;1.83;;;;;;;;;;5055137;28;20167;-67
2023/07/26 00:51:03;;;;;;;2.83;1.70;;;;;;;;;;5033801;28;20106;-67
2023/07/26 00:53:30;;;;;;;6.13;1.60;;;;;;;;;;5059045;28;20057;-67
2023/07/26 00:55:58;;;;;;;5.88;1.90;;;;;;;;;;5047184;28;20056;-67
2023/07/26 00:58:25;;;;;;;5.67;1.93;;;;;;;;;;5050496;28;20044;-67
2023/07/26 01:00:52;;;;;;;3.05;1.50;;;;;;;;;;5059608;28;20048;-68
2023/07/26 01:03:21;;;;;;;6.60;2.00;;;;;;;;;;5057000;28;20052;-67
2023/07/26 01:06:01;;;;;;;6.07;2.65;;;;;;;;;;5073818;28;20048;-68
2023/07/26 01:08:42;;;;;;;6.72;3.20;;;;;;;;;;5049597;28;20481;-67
2023/07/26 01:11:17;;;;;;;8.27;4.35;;;;;;;;;;5076190;28;20044;-67
2023/07/26 01:13:49;;;;;;;12.07;5.60;;;;;;;;;;5080708;28;20062;-67
2023/07/26 01:16:17;;;;;;;18.88;8.55;;;;;;;;;;5055484;28;20059;-68
2023/07/26 01:18:46;;;;;;;6.20;2.55;;;;;;;;;;5052369;28;20062;-68
2023/07/26 01:21:12;;;;;;;4.50;1.90;;;;;;;;;;5062309;28;20221;-67
2023/07/26 01:23:41;;;;;;;7.28;3.10;;;;;;;;;;5061604;28;20063;-68
2023/07/26 01:26:08;;;;;;;7.82;2.60;;;;;;;;;;5064887;28;20060;-67
2023/07/26 01:28:35;;;;;;;4.97;2.17;;;;;;;;;;5068007;28;20048;-68
2023/07/26 01:31:06;;;;;;;4.97;1.90;;;;;;;;;;5075976;28;20062;-68
2023/07/26 01:33:35;;;;;;;4.70;1.70;;;;;;;;;;5075962;28;20058;-67
2023/07/26 01:36:04;;;;;;;4.65;1.92;;;;;;;;;;5056392;28;20059;-68
2023/07/26 01:38:31;;;;;;;4.18;1.80;;;;;;;;;;5058461;28;20091;-67
2023/07/26 01:41:01;;;;;;;5.25;1.65;;;;;;;;;;5066200;28;20048;-67
2023/07/26 01:43:28;;;;;;;3.90;1.77;;;;;;;;;;5060569;28;20086;-67
2023/07/26 01:45:55;;;;;;;5.45;1.73;;;;;;;;;;5073486;28;20044;-67
2023/07/26 01:48:22;;;;;;;4.30;1.90;;;;;;;;;;5070282;28;20059;-69
2023/07/26 01:50:49;;;;;;;5.45;2.20;;;;;;;;;;5077633;28;20097;-68
2023/07/26 01:53:18;;;;;;;5.28;2.15;;;;;;;;;;5059877;28;20058;-67
2023/07/26 01:55:45;;;;;;;4.28;1.98;;;;;;;;;;5074645;28;20132;-67
2023/07/26 01:58:16;;;;;;;5.03;2.25;;;;;;;;;;5084139;28;20073;-67
2023/07/26 02:00:42;;;;;;;4.80;2.33;;;;;;;;;;5071506;28;20140;-68
2023/07/26 02:03:10;;;;;;;8.00;3.75;;;;;;;;;;5066004;28;20060;-67
2023/07/26 02:05:42;;;;;;;10.90;4.90;;;;;;;;;;5058388;28;20075;-66
2023/07/26 02:08:09;;;;;;;14.30;7.38;;;;;;;;;;5062462;28;20051;-67
2023/07/26 02:10:36;;;;;;;7.72;3.97;;;;;;;;;;5055028;28;20058;-67
2023/07/26 02:13:03;;;;;;;4.95;2.70;;;;;;;;;;5074907;28;20070;-67
2023/07/26 02:15:31;;;;;;;6.05;2.33;;;;;;;;;;5074708;28;20063;-67
2023/07/26 02:17:59;;;;;;;4.72;2.08;;;;;;;;;;5061495;28;20078;-68
2023/07/26 02:20:26;;;;;;;7.07;2.70;;;;;;;;;;5078299;28;20055;-68
2023/07/26 02:22:53;;;;;;;7.90;2.88;;;;;;;;;;5060747;28;20113;-68
2023/07/26 02:25:20;;;;;;;5.10;2.35;;;;;;;;;;5076493;28;20221;-66
2023/07/26 02:27:47;;;;;;;5.78;2.78;;;;;;;;;;5062802;28;20055;-68
2023/07/26 02:30:13;;;;;;;5.28;2.45;;;;;;;;;;5078529;28;20052;-66
2023/07/26 02:32:42;;;;;;;5.07;2.42;;;;;;;;;;5057440;28;20083;-68
2023/07/26 02:35:09;;;;;;;6.53;3.00;;;;;;;;;;5055815;28;20048;-67
2023/07/26 02:37:36;;;;;;;5.93;2.50;;;;;;;;;;5059332;28;20075;-67
2023/07/26 02:40:03;;;;;;;7.22;2.97;;;;;;;;;;5062348;28;20159;-67
2023/07/26 02:42:30;;;;;;;5.38;2.65;;;;;;;;;;5074627;28;20079;-67
2023/07/26 02:44:57;;;;;;;6.53;3.05;;;;;;;;;;5055714;28;20046;-67
2023/07/26 02:47:23;;;;;;;6.40;2.80;;;;;;;;;;5063557;28;20066;-66
2023/07/26 02:49:52;;;;;;;6.57;2.83;;;;;;;;;;5063305;28;20101;-67
2023/07/26 02:52:19;;;;;;;8.45;3.20;;;;;;;;;;5081266;28;20060;-65
2023/07/26 02:54:46;;;;;;;6.00;2.92;;;;;;;;;;5072743;28;20044;-67
2023/07/26 02:57:13;;;;;;;6.85;2.67;;;;;;;;;;5060399;28;20032;-67
2023/07/26 02:59:42;;;;;;;6.90;2.80;;;;;;;;;;5078014;28;20060;-67
2023/07/26 03:02:08;;;;;;;6.45;2.67;;;;;;;;;;5057151;28;20044;-67
2023/07/26 03:04:35;;;;;;;7.18;3.00;;;;;;;;;;5044925;28;20059;-67
2023/07/26 03:07:04;;;;;;;6.22;2.92;;;;;;;;;;5056714;28;20084;-67
2023/07/26 03:09:30;;;;;;;6.95;2.72;;;;;;;;;;5058739;28;20067;-66
2023/07/26 03:11:57;;;;;;;7.05;3.30;;;;;;;;;;5079186;28;20119;-67
2023/07/26 03:14:24;;;;;;;6.03;3.00;;;;;;;;;;5049352;28;20106;-68
2023/07/26 03:16:51;;;;;;;5.80;3.10;;;;;;;;;;5060232;28;20087;-67
2023/07/26 03:19:18;;;;;;;5.07;2.85;;;;;;;;;;5063270;28;20044;-66
2023/07/26 03:21:45;;;;;;;6.95;3.08;;;;;;;;;;5065948;28;20044;-66
2023/07/26 03:24:13;;;;;;;5.88;3.22;;;;;;;;;;5072534;28;20131;-67
2023/07/26 03:26:40;;;;;;;7.57;3.40;;;;;;;;;;5073653;28;20056;-66
2023/07/26 03:29:07;;;;;;;6.95;3.03;;;;;;;;;;5077836;28;20120;-67
2023/07/26 03:31:33;;;;;;;5.40;2.97;;;;;;;;;;5078570;28;20062;-67
2023/07/26 03:34:03;;;;;;;6.85;3.10;;;;;;;;;;5074887;28;20075;-66
2023/07/26 03:36:30;;;;;;;5.53;3.20;;;;;;;;;;5060357;28;20056;-66
2023/07/26 03:38:57;;;;;;;11.32;3.25;;;;;;;;;;5060605;28;20056;-66
2023/07/26 03:41:25;;;;;;;6.68;3.40;;;;;;;;;;5060220;28;20052;-67
2023/07/26 03:43:52;;;;;;;8.13;3.22;;;;;;;;;;5054302;28;20056;-66
2023/07/26 03:46:21;;;;;;;8.77;3.75;;;;;;;;;;5074862;28;20113;-66
2023/07/26 03:48:51;;;;;;;8.35;3.58;;;;;;;;;;5058897;28;20048;-66
2023/07/26 03:51:18;;;;;;;6.95;3.28;;;;;;;;;;5063281;28;20056;-66
2023/07/26 03:53:45;;;;;;;7.47;3.42;;;;;;;;;;5058104;28;20059;-67
2023/07/26 03:56:12;;;;;;;6.13;3.00;;;;;;;;;;5063430;28;20091;-67
2023/07/26 03:58:46;;;;;;;7.97;3.22;;;;;;;;;;5054436;28;20090;-67
2023/07/26 04:01:13;;;;;;;7.78;3.60;;;;;;;;;;5061167;28;20044;-66
2023/07/26 04:03:40;;;;;;;7.30;3.55;;;;;;;;;;5075271;28;20048;-67
2023/07/26 04:06:12;;;;;;;5.90;3.20;;;;;;;;;;5084707;28;20054;-67
2023/07/26 04:08:39;;;;;;;8.23;3.53;;;;;;;;;;5073726;28;20044;-67
2023/07/26 04:11:05;;;;;;;5.80;3.28;;;;;;;;;;5063945;28;20059;-67
2023/07/26 04:13:32;;;;;;;7.05;3.50;;;;;;;;;;5063314;28;20080;-66
2023/07/26 04:16:01;;;;;;;7.88;3.47;;;;;;;;;;5066643;28;20075;-66
2023/07/26 04:18:28;;;;;;;8.48;3.60;;;;;;;;;;5060911;28;20143;-66
2023/07/26 04:20:55;;;;;;;6.93;3.63;;;;;;;;;;5062580;28;20139;-67
2023/07/26 04:23:22;;;;;;;6.93;3.55;;;;;;;;;;5081574;28;20071;-66
2023/07/26 04:25:51;;;;;;;8.05;3.53;;;;;;;;;;5065074;28;20051;-66
2023/07/26 04:28:17;;;;;;;;;;;;;;;;;;5064159;28;20225;-66
2023/07/26 04:30:47;;;;;;;9.27;3.30;;;;;;;;;;5055614;28;20010;-67
2023/07/26 04:33:15;;;;;;;7.93;3.22;;;;;;;;;;5081820;28;20067;-67
2023/07/26 04:35:44;;;;;;;14.18;7.05;;;;;;;;;;5035962;28;20164;-67
2023/07/26 04:38:14;;;;;;;19.20;9.60;;;;;;;;;;5062515;28;20067;-67
2023/07/26 04:40:42;;;;;;;39.97;22.55;;;;;;;;;;5072911;28;20056;-67
2023/07/26 04:43:08;;;;;;;11.05;5.43;;;;;;;;;;5063458;28;20048;-67
2023/07/26 04:45:35;;;;;;;8.40;3.80;;;;;;;;;;5071448;28;20106;-67
2023/07/26 04:48:04;;;;;;;6.05;3.28;;;;;;;;;;5079613;28;20052;-66
2023/07/26 04:50:35;;;;;;;10.27;3.63;;;;;;;;;;5072074;28;20109;-67
2023/07/26 04:53:01;;;;;;;6.68;3.20;;;;;;;;;;5063784;28;20066;-67
2023/07/26 04:55:28;;;;;;;6.95;3.53;;;;;;;;;;5050814;28;20045;-68
2023/07/26 04:57:57;;;;;;;8.50;3.45;;;;;;;;;;5064128;28;20052;-67
2023/07/26 05:00:24;;;;;;;;;;;;;;;;;;5076711;28;20051;-67
2023/07/26 05:02:51;;;;;;;5.85;3.10;;;;;;;;;;5062783;28;22154;-67
2023/07/26 05:05:17;;;;;;;6.28;3.22;;;;;;;;;;5076208;28;20048;-67
2023/07/26 05:07:49;;;;;;;7.38;3.65;;;;;;;;;;5061826;28;20048;-67
2023/07/26 05:10:19;;;;;;;138.52;54.55;;;;;;;;;;5073644;28;20059;-68
2023/07/26 05:12:47;;;;;;;18.50;9.15;;;;;;;;;;5066951;28;20055;-66
2023/07/26 05:15:14;;;;;;;14.37;6.40;;;;;;;;;;5075079;28;20063;-67
2023/07/26 05:17:41;;;;;;;8.30;4.00;;;;;;;;;;5062113;28;20137;-66
2023/07/26 05:20:12;;;;;;;6.30;3.20;;;;;;;;;;5061177;28;20067;-67
2023/07/26 05:22:40;;;;;;;7.53;3.33;;;;;;;;;;5070940;28;20135;-66
2023/07/26 05:25:11;;;;;;;7.65;3.35;;;;;;;;;;5063126;28;20048;-66
2023/07/26 05:27:38;;;;;;;7.13;3.40;;;;;;;;;;5061507;28;20075;-67
2023/07/26 05:30:06;;;;;;;7.13;3.40;;;;;;;;;;5079334;28;20059;-67
2023/07/26 05:32:33;;;;;;;17.48;8.45;;;;;;;;;;5054042;28;20055;-67
2023/07/26 05:35:00;;;;;;;7.88;4.07;;;;;;;;;;5074018;28;20051;-67
2023/07/26 05:37:29;;;;;;;31.17;14.20;;;;;;;;;;5061412;28;20052;-68
2023/07/26 05:39:56;;;;;;;10.77;4.65;;;;;;;;;;5079655;28;20090;-67
2023/07/26 05:42:27;;;;;;;6.53;3.60;;;;;;;;;;5059639;28;20040;-67
2023/07/26 05:44:54;;;;;;;8.32;3.67;;;;;;;;;;5056114;28;20051;-67
2023/07/26 05:47:21;;;;;;;7.95;4.07;;;;;;;;;;5042173;28;20063;-67
2023/07/26 05:49:48;;;;;;;7.35;3.53;;;;;;;;;;5041496;28;20121;-66
2023/07/26 05:52:15;;;;;;;10.50;4.25;;;;;;;;;;5042558;28;20102;-67
2023/07/26 05:54:42;;;;;;;8.35;3.53;;;;;;;;;;5038476;28;20080;-66
2023/07/26 05:57:09;;;;;;;8.57;4.13;;;;;;;;;;5059713;28;20052;-66
2023/07/26 05:59:37;;;;;;;10.02;4.05;;;;;;;;;;5063581;28;20070;-68
2023/07/26 06:02:05;;;;;;;15.07;4.22;;;;;;;;;;5080975;28;20047;-67
2023/07/26 06:04:32;;;;;;;6.97;3.97;;;;;;;;;;5049183;28;20058;-67
2023/07/26 06:06:58;;;;;;;10.60;4.25;;;;;;;;;;5083983;28;20094;-68
2023/07/26 06:09:25;;;;;;;9.52;4.70;;;;;;;;;;5080050;28;20067;-68
2023/07/26 06:11:58;;;;;;;8.20;4.45;;;;;;;;;;5066863;28;20152;-68
2023/07/26 06:14:25;;;;;;;11.93;4.95;;;;;;;;;;5053231;28;20052;-69
2023/07/26 06:16:56;;;;;;;15.82;5.70;;;;;;;;;;5065527;28;20048;-68
2023/07/26 06:19:28;;;;;;;10.52;4.97;;;;;;;;;;5061293;28;20151;-68
2023/07/26 06:21:55;;;;;;;11.68;5.40;;;;;;;;;;5062557;28;20064;-68
2023/07/26 06:24:23;;;;;;;16.90;6.68;;;;;;;;;;5055130;28;20048;-68
2023/07/26 06:26:50;;;;;;;16.83;8.85;;;;;;;;;;5075108;28;21273;-68
2023/07/26 06:29:17;;;;;;;11.13;6.13;;;;;;;;;;5054735;28;20079;-68
2023/07/26 06:31:47;;;;;;;13.77;7.30;;;;;;;;;;5058652;28;20097;-68
2023/07/26 06:34:15;;;;;;;11.57;5.65;;;;;;;;;;5040956;28;20135;-69
2023/07/26 06:36:43;;;;;;;14.57;6.57;;;;;;;;;;5036715;28;20149;-69
2023/07/26 06:39:10;;;;;;;15.40;6.00;;;;;;;;;;5057493;28;20110;-69
2023/07/26 06:41:37;;;;;;;14.82;6.18;;;;;;;;;;5041884;28;20294;-69
2023/07/26 06:44:04;;;;;;;12.85;6.18;;;;;;;;;;5053384;28;20112;-68
2023/07/26 06:46:33;;;;;;;11.43;5.30;;;;;;;;;;5059135;28;20059;-70
2023/07/26 06:48:59;;;;;;;15.52;4.72;;;;;;;;;;5060047;28;20068;-70
2023/07/26 06:51:28;;;;;;;12.05;5.30;;;;;;;;;;5061452;28;20067;-70
2023/07/26 06:53:55;;;;;;;14.43;5.30;;;;;;;;;;5047372;28;20052;-70
2023/07/26 06:56:22;;;;;;;13.57;5.22;;;;;;;;;;5077588;28;20036;-68
2023/07/26 06:58:55;;;;;;;10.82;5.30;;;;;;;;;;5072699;28;20059;-69
2023/07/26 07:01:23;;;;;;;11.95;5.00;;;;;;;;;;5079786;28;20058;-69
2023/07/26 07:03:50;;;;;;;11.27;4.63;;;;;;;;;;5036751;28;20056;-67
2023/07/26 07:06:18;;;;;;;12.25;5.05;;;;;;;;;;5060178;28;20167;-68
2023/07/26 07:08:47;;;;;;;13.38;5.32;;;;;;;;;;5056949;28;20139;-68
2023/07/26 07:11:14;;;;;;;11.43;5.13;;;;;;;;;;5057627;28;20144;-68
2023/07/26 07:13:40;;;;;;;9.50;4.35;;;;;;;;;;5040132;28;20103;-69
2023/07/26 07:16:07;;;;;;;8.65;3.58;;;;;;;;;;5037115;28;20084;-67
2023/07/26 07:18:34;;;;;;;10.07;4.07;;;;;;;;;;5033122;28;20117;-66
2023/07/26 07:21:03;;;;;;;7.28;3.00;;;;;;;;;;5058287;28;20315;-67
2023/07/26 07:23:30;;;;;;;10.23;3.30;;;;;;;;;;5060632;28;20147;-67
2023/07/26 07:25:59;;;;;;;8.45;2.53;;;;;;;;;;5040512;28;20056;-68
2023/07/26 07:28:26;;;;;;;7.70;2.33;;;;;;;;;;5060549;28;20126;-67
2023/07/26 07:30:52;;;;;;;6.15;2.65;;;;;;;;;;5041246;28;20064;-67
2023/07/26 07:33:19;;;;;;;5.80;2.13;;;;;;;;;;5044655;28;20052;-68
2023/07/26 07:35:46;;;;;;;6.63;2.17;;;;;;;;;;5040513;28;20044;-67
2023/07/26 07:38:13;;;;;;;6.88;2.33;;;;;;;;;;5045743;28;20059;-68
2023/07/26 07:40:40;;;;;;;5.10;2.25;;;;;;;;;;5037689;28;20255;-68
2023/07/26 07:43:08;;;;;;;8.10;3.78;;;;;;;;;;5045753;28;20056;-68
2023/07/26 07:45:40;;;;;;;7.78;3.53;;;;;;;;;;5057350;28;20056;-69
2023/07/26 07:48:10;;;;;;;5.65;3.33;;;;;;;;;;5044950;28;20080;-67
2023/07/26 07:50:36;;;;;;;5.53;2.65;;;;;;;;;;5052773;28;20052;-68
2023/07/26 07:53:04;;;;;;;6.05;2.15;;;;;;;;;;5052540;28;20063;-68
2023/07/26 07:55:34;;;;;;;6.25;2.25;;;;;;;;;;5059281;28;20304;-68
2023/07/26 07:58:04;;;;;;;6.57;2.30;;;;;;;;;;5080854;28;20101;-68
2023/07/26 08:00:33;;;;;;;3.95;2.08;;;;;;;;;;5074286;28;20091;-69
2023/07/26 08:03:00;;;;;;;5.10;2.28;;;;;;;;;;5063742;28;20047;-69
2023/07/26 08:05:27;;;;;;;6.13;2.47;;;;;;;;;;5074247;28;20083;-69
2023/07/26 08:07:54;;;;;;;5.93;2.40;;;;;;;;;;5064874;28;20056;-68
2023/07/26 08:10:21;;;;;;;8.85;2.33;;;;;;;;;;5063179;28;20066;-69
2023/07/26 08:12:48;;;;;;;7.45;3.53;;;;;;;;;;5052717;28;20056;-69
2023/07/26 08:15:15;;;;;;;4.97;2.88;;;;;;;;;;5059229;28;20063;-69
2023/07/26 08:17:43;;;;;;;5.68;3.20;;;;;;;;;;5081534;28;20075;-70
2023/07/26 08:20:11;;;;;;;5.63;2.53;;;;;;;;;;5080147;28;20052;-69
2023/07/26 08:22:38;;;;;;;5.93;2.20;;;;;;;;;;5056509;28;20044;-70
2023/07/26 08:25:09;;;;;;;3.25;1.60;;;;;;;;;;5049692;28;20056;-67
2023/07/26 08:27:35;;;;;;;2.45;1.58;;;;;;;;;;5079791;28;20060;-68
2023/07/26 08:30:03;;;;;;;2.45;1.42;;;;;;;;;;5062708;28;20048;-68
2023/07/26 08:32:30;;;;;;;5.93;2.20;;;;;;;;;;5074249;28;20051;-69
2023/07/26 08:34:58;;;;;;;4.63;2.38;;;;;;;;;;5073705;28;20059;-68
2023/07/26 08:37:25;;;;;;;5.88;2.47;;;;;;;;;;5079921;28;20051;-68
2023/07/26 08:39:51;;;;;;;6.93;2.67;;;;;;;;;;5063557;28;20050;-70
2023/07/26 08:42:19;;;;;;;8.27;3.35;;;;;;;;;;5081067;28;20083;-69
2023/07/26 08:44:48;;;;;;;7.68;3.75;;;;;;;;;;5073369;28;20059;-69
2023/07/26 08:47:17;;;;;;;8.48;3.65;;;;;;;;;;5063421;28;20090;-68
2023/07/26 08:49:43;;;;;;;;;;;;;;;;;;5080105;28;20052;-69
2023/07/26 08:52:12;;;;;;;10.52;4.13;;;;;;;;;;5062572;28;19931;-68
2023/07/26 08:54:39;;;;;;;8.20;4.43;;;;;;;;;;5060742;28;20081;-67
2023/07/26 08:57:06;;;;;;;8.32;3.50;;;;;;;;;;5079731;28;20067;-67
2023/07/26 08:59:33;;;;;;;7.40;3.78;;;;;;;;;;5079168;28;20107;-69
2023/07/26 09:02:01;;;;;;;7.05;3.83;;;;;;;;;;5058947;28;20037;-68
2023/07/26 09:04:29;;;;;;;8.57;3.85;;;;;;;;;;5025458;28;20053;-68
2023/07/26 09:06:56;;;;;;;11.32;3.83;;;;;;;;;;5056339;28;20048;-68
2023/07/26 09:09:24;;;;;;;10.82;4.38;;;;;;;;;;5041423;28;20227;-68
2023/07/26 09:11:52;;;;;;;8.50;4.15;;;;;;;;;;5045545;28;20048;-68
2023/07/26 09:14:19;;;;;;;10.68;4.38;;;;;;;;;;5057051;28;20124;-68
2023/07/26 09:16:55;;;;;;;9.10;4.30;;;;;;;;;;5074132;28;20048;-68
2023/07/26 09:19:28;;;;;;;9.20;4.78;;;;;;;;;;5062359;28;20084;-69
2023/07/26 09:21:58;;;;;;;12.45;5.45;;;;;;;;;;5062875;28;20098;-68
2023/07/26 09:24:33;;;;;;;9.57;5.28;;;;;;;;;;5022956;28;20081;-68
2023/07/26 09:27:04;;;;;;;13.95;4.82;;;;;;;;;;5073637;28;20093;-68
2023/07/26 09:29:31;;;;;;;9.43;4.35;;;;;;;;;;5061528;28;20044;-69
2023/07/26 09:31:58;;;;;;;9.13;4.07;;;;;;;;;;5083375;28;20052;-69
2023/07/26 09:34:25;;;;;;;9.60;3.90;;;;;;;;;;5031435;28;20052;-70
2023/07/26 09:36:54;;;;;;;12.25;4.32;;;;;;;;;;5079376;28;20180;-69
2023/07/26 09:39:24;;;;;;;11.73;4.20;;;;;;;;;;5062629;28;20052;-69
2023/07/26 09:42:04;;;;;;;8.43;3.55;;;;;;;;;;5061784;28;20076;-68
2023/07/26 09:44:31;;;;;;;8.00;3.35;;;;;;;;;;5051996;28;20063;-69
2023/07/26 09:46:58;;;;;;;8.48;3.83;;;;;;;;;;5078940;28;20067;-70
2023/07/26 09:49:27;;;;;;;10.70;3.72;;;;;;;;;;5046783;28;20052;-69
2023/07/26 09:51:57;;;;;;;9.70;3.22;;;;;;;;;;5060395;28;20064;-69
2023/07/26 09:54:27;;;;;;;8.70;2.72;;;;;;;;;;5017921;28;20112;-68
2023/07/26 09:56:57;;;;;;;12.25;3.33;;;;;;;;;;5032203;28;20060;-69
2023/07/26 09:59:26;;;;;;;7.13;3.00;;;;;;;;;;5041053;28;20044;-68
2023/07/26 10:01:53;;;;;;;9.50;3.33;;;;;;;;;;5065419;28;20116;-70
2023/07/26 10:04:26;;;;;;;7.63;3.20;;;;;;;;;;5045739;28;20055;-69
2023/07/26 10:06:57;;;;;;;8.75;3.47;;;;;;;;;;5059468;28;20101;-70
2023/07/26 10:09:25;;;;;;;7.95;3.97;;;;;;;;;;5061724;28;20067;-69
2023/07/26 10:11:54;;;;;;;9.75;3.63;;;;;;;;;;5056772;28;20056;-68
2023/07/26 10:14:26;;;;;;;9.52;3.42;;;;;;;;;;5031749;28;20160;-69
2023/07/26 10:16:55;;;;;;;7.47;3.20;;;;;;;;;;5082248;28;20062;-70
2023/07/26 10:19:30;;;;;;;7.32;3.75;;;;;;;;;;5079055;28;20056;-70
2023/07/26 10:21:58;;;;;;;9.32;4.00;;;;;;;;;;5062361;28;20047;-69
2023/07/26 10:24:26;;;;;;;10.70;3.27;;;;;;;;;;5052673;28;20134;-68
2023/07/26 10:26:54;;;;;;;10.48;3.28;;;;;;;;;;5076068;28;20401;-67
2023/07/26 10:29:22;;;;;;;8.23;3.25;;;;;;;;;;5061182;28;20059;-70
2023/07/26 10:32:01;;;;;;;8.68;3.08;;;;;;;;;;5066855;28;20151;-69
2023/07/26 10:34:32;;;;;;;8.48;3.50;;;;;;;;;;5049940;28;20075;-69
2023/07/26 10:36:59;;;;;;;10.05;2.72;;;;;;;;;;5059477;28;20052;-68
2023/07/26 10:39:33;;;;;;;7.60;3.38;;;;;;;;;;5059970;28;20091;-68
2023/07/26 10:42:00;;;;;;;8.75;2.80;;;;;;;;;;5068767;28;20072;-70
2023/07/26 10:44:27;;;;;;;7.07;2.92;;;;;;;;;;5043641;28;20051;-69
2023/07/26 10:47:02;;;;;;;7.75;2.67;;;;;;;;;;5062741;28;20059;-69
2023/07/26 10:49:33;;;;;;;7.03;2.78;;;;;;;;;;5060750;28;20052;-69
2023/07/26 10:52:02;;;;;;;6.38;2.85;;;;;;;;;;5059954;28;20064;-69
2023/07/26 10:54:39;;;;;;;8.05;3.45;;;;;;;;;;5043415;28;20059;-70
2023/07/26 10:57:20;;;;;;;9.80;3.58;;;;;;;;;;5060926;28;20154;-70
2023/07/26 10:59:59;;;;;;;7.05;3.15;;;;;;;;;;5061002;28;20052;-68
2023/07/26 11:02:45;;;;;;;7.10;2.80;;;;;;;;;;5049015;28;20090;-69
2023/07/26 11:05:14;;;;;;;7.38;2.08;;;;;;;;;;5032772;28;20120;-70
2023/07/26 11:08:01;;;;;;;7.50;2.40;;;;;;;;;;5069321;28;20052;-71
2023/07/26 11:10:31;;;;;;;4.60;2.10;;;;;;;;;;5032662;28;20045;-71
2023/07/26 11:13:10;;;;;;;5.97;2.25;;;;;;;;;;5055189;28;20084;-70
2023/07/26 11:15:39;;;;;;;7.28;2.08;;;;;;;;;;5043634;28;20080;-70
2023/07/26 11:18:08;;;;;;;4.10;1.60;;;;;;;;;;5058262;28;20058;-70
2023/07/26 11:20:38;;;;;;;4.05;1.73;;;;;;;;;;5050890;28;20169;-69
2023/07/26 11:23:15;;;;;;;4.65;1.88;;;;;;;;;;5058679;28;20060;-71
2023/07/26 11:25:45;;;;;;;9.05;2.15;;;;;;;;;;5052120;28;20059;-71
2023/07/26 11:28:12;;;;;;;7.57;1.92;;;;;;;;;;5059589;28;20134;-69
2023/07/26 11:30:47;;;;;;;5.38;1.98;;;;;;;;;;5053543;28;20040;-69
2023/07/26 11:33:33;;;;;;;4.45;1.80;;;;;;;;;;5058974;28;20060;-70
2023/07/26 11:36:02;;;;;;;6.35;1.80;;;;;;;;;;5037647;28;20085;-71
2023/07/26 11:38:53;;;;;;;;;;;;;;;;;;;;;
2023/07/26 11:41:26;;;;;;;5.97;1.55;;;;;;;;;;5059187;28;20067;-70
2023/07/26 11:43:56;;;;;;;6.68;1.50;;;;;;;;;;5049266;28;20145;-70
2023/07/26 11:46:35;;;;;;;3.30;1.50;;;;;;;;;;4952587;28;20064;-70
2023/07/26 11:49:03;;;;;;;8.52;1.80;;;;;;;;;;4998348;28;20133;-69
2023/07/26 11:51:32;;;;;;;4.22;1.48;;;;;;;;;;5035209;28;20218;-69
2023/07/26 11:53:59;;;;;;;2.88;1.33;;;;;;;;;;5053888;28;20071;-71
2023/07/26 11:56:30;;;;;;;3.58;1.42;;;;;;;;;;5034767;28;20072;-70
2023/07/26 11:59:01;;;;;;;5.22;1.60;;;;;;;;;;5035852;28;20056;-70
2023/07/26 12:01:28;;;;;;;3.80;1.40;;;;;;;;;;5040573;28;20072;-70
2023/07/26 12:03:56;;;;;;;3.95;1.50;;;;;;;;;;5061103;28;20044;-70
2023/07/26 12:06:59;;;;;;;3.53;1.63;;;;;;;;;;4983422;28;20060;-73
2023/07/26 12:09:28;;;;;;;4.95;1.80;;;;;;;;;;5059871;28;20046;-71
2023/07/26 12:11:57;;;;;;;4.85;1.80;;;;;;;;;;5052702;28;20044;-69
2023/07/26 12:14:31;;;;;;;2.70;1.48;;;;;;;;;;5029704;28;20051;-71
2023/07/26 12:16:59;;;;;;;5.78;1.55;;;;;;;;;;5062448;28;20083;-70
2023/07/26 12:19:35;;;;;;;5.15;1.65;;;;;;;;;;5064395;28;20146;-71
2023/07/26 12:22:05;;;;;;;6.63;1.90;;;;;;;;;;5066438;28;20155;-70
2023/07/26 12:24:32;;;;;;;4.10;1.85;;;;;;;;;;5042626;28;20059;-69
2023/07/26 12:27:01;;;;;;;4.25;2.08;;;;;;;;;;5085323;28;20067;-71
2023/07/26 12:29:30;;;;;;;6.78;1.95;;;;;;;;;;5082696;28;20048;-69
2023/07/26 12:32:03;;;;;;;7.35;1.83;;;;;;;;;;5087071;28;20032;-70
2023/07/26 12:34:42;;;;;;;7.60;1.83;;;;;;;;;;5040561;28;20052;-71
2023/07/26 12:37:13;;;;;;;3.83;1.60;;;;;;;;;;5078285;28;20048;-66
2023/07/26 12:39:42;;;;;;;3.72;1.70;;;;;;;;;;5063025;28;20084;-68
2023/07/26 12:42:09;;;;;;;4.03;1.40;;;;;;;;;;5080682;28;20062;-70
2023/07/26 12:44:36;;;;;;;5.78;1.73;;;;;;;;;;5042777;28;20052;-68
2023/07/26 12:47:08;;;;;;;4.90;1.70;;;;;;;;;;5060400;28;20079;-67
2023/07/26 12:49:43;;;;;;;3.80;1.52;;;;;;;;;;5081263;28;20135;-68
2023/07/26 12:52:13;;;;;;;4.80;1.65;;;;;;;;;;5078737;28;20135;-69
2023/07/26 12:54:40;;;;;;;5.22;1.58;;;;;;;;;;5071224;28;20281;-68
2023/07/26 12:57:10;;;;;;;3.60;1.52;;;;;;;;;;5052176;28;20052;-67
2023/07/26 12:59:41;;;;;;;2.95;1.40;;;;;;;;;;5063568;28;20063;-68
2023/07/26 13:02:08;;;;;;;5.80;1.73;;;;;;;;;;5081279;28;20067;-69
2023/07/26 13:04:37;;;;;;;7.47;1.85;;;;;;;;;;5033617;28;20207;-68
2023/07/26 13:07:05;;;;;;;;;;;;;;;;;;5037462;28;20052;-69
2023/07/26 13:09:34;;;;;;;4.72;1.85;;;;;;;;;;5062998;28;19927;-69
2023/07/26 13:12:01;;;;;;;5.13;1.75;;;;;;;;;;5055894;28;20067;-67
2023/07/26 13:14:28;;;;;;;5.35;2.03;;;;;;;;;;5049895;28;20056;-70
2023/07/26 13:16:55;;;;;;;3.90;1.50;;;;;;;;;;5018257;28;20037;-67
2023/07/26 13:19:30;;;;;;;4.72;1.33;;;;;;;;;;5061737;28;20081;-68
2023/07/26 13:21:56;;;;;;;6.07;2.15;;;;;;;;;;5078165;28;20147;-68
2023/07/26 13:24:24;;;;;;;4.53;1.80;;;;;;;;;;5074454;28;20052;-68
2023/07/26 13:26:53;;;;;;;5.22;1.52;;;;;;;;;;5070643;28;20078;-68
2023/07/26 13:29:23;;;;;;;5.07;1.95;;;;;;;;;;5080461;28;20060;-68
2023/07/26 13:31:50;;;;;;;4.68;1.40;;;;;;;;;;5055580;28;20043;-69
2023/07/26 13:34:22;;;;;;;2.95;1.25;;;;;;;;;;5064876;28;20040;-69
2023/07/26 13:36:49;;;;;;;6.07;1.50;;;;;;;;;;5005040;28;20072;-68
2023/07/26 13:39:16;;;;;;;2.80;1.27;;;;;;;;;;5054401;28;20133;-67
2023/07/26 13:41:43;;;;;;;4.93;1.33;;;;;;;;;;5068538;28;20048;-67
2023/07/26 13:44:18;;;;;;;2.38;1.17;;;;;;;;;;5080576;28;20078;-66
2023/07/26 13:46:46;;;;;;;4.10;2.00;;;;;;;;;;5050248;28;20349;-67
2023/07/26 13:49:16;;;;;;;4.70;1.90;;;;;;;;;;5082716;28;20143;-68
2023/07/26 13:51:45;;;;;;;4.03;1.67;;;;;;;;;;5066726;28;20125;-68
2023/07/26 13:54:17;;;;;;;7.45;1.50;;;;;;;;;;5069495;28;20152;-67
2023/07/26 13:56:58;;;;;;;3.75;1.70;;;;;;;;;;5052753;28;20047;-67
2023/07/26 13:59:29;;;;;;;6.07;1.60;;;;;;;;;;5082432;28;20076;-67
2023/07/26 14:02:01;;;;;;;4.53;1.70;;;;;;;;;;5064076;28;20105;-67
2023/07/26 14:04:32;;;;;;;3.58;1.48;;;;;;;;;;5050023;28;20048;-68
2023/07/26 14:07:06;;;;;;;4.85;1.50;;;;;;;;;;5057915;28;20112;-69
2023/07/26 14:09:33;;;;;;;4.93;2.10;;;;;;;;;;5066133;28;20048;-68
2023/07/26 14:12:00;;;;;;;4.15;1.60;;;;;;;;;;5063850;28;20055;-68
2023/07/26 14:14:32;;;;;;;10.95;4.97;;;;;;;;;;5077417;28;20055;-68
2023/07/26 14:16:59;;;;;;;6.10;2.00;;;;;;;;;;5056500;28;20079;-68
2023/07/26 14:19:26;;;;;;;3.90;1.92;;;;;;;;;;5062648;28;20051;-69
2023/07/26 14:21:53;;;;;;;6.18;2.70;;;;;;;;;;5088163;28;20048;-68
2023/07/26 14:24:22;;;;;;;3.38;1.60;;;;;;;;;;5062519;28;20112;-69
2023/07/26 14:26:50;;;;;;;4.18;1.52;;;;;;;;;;5024031;28;21553;-68
2023/07/26 14:29:18;;;;;;;3.55;1.73;;;;;;;;;;5057720;28;20303;-68
2023/07/26 14:31:48;;;;;;;4.23;1.67;;;;;;;;;;5058030;28;20114;-68
2023/07/26 14:34:16;;;;;;;6.30;1.85;;;;;;;;;;5058583;28;20044;-69
2023/07/26 14:36:43;;;;;;;5.32;2.60;;;;;;;;;;5014587;28;20052;-67
2023/07/26 14:39:12;;;;;;;6.70;2.90;;;;;;;;;;5082973;28;20052;-67
2023/07/26 14:41:41;;;;;;;3.45;1.63;;;;;;;;;;5063898;28;20072;-68
2023/07/26 14:44:07;;;;;;;;;;;;;;;;;;5059111;28;20124;-67
2023/07/26 14:46:34;;;;;;;4.93;1.80;;;;;;;;;;5031046;28;19958;-69
2023/07/26 14:49:03;;;;;;;3.30;1.60;;;;;;;;;;5063638;28;20048;-67
2023/07/26 14:51:30;;;;;;;;;;;;;;;;;;5082999;28;20085;-68
2023/07/26 14:53:57;;;;;;;4.35;1.63;;;;;;;;;;5063733;28;19939;-67